CheckWX is a tool to help pilots better visualize weather data.  It is not intended as a substitute for an official pre-flight weather briefing.

20:27:03 UTC

EYSA METAR
Šiauliai International Airport
Šiauliai, Lithuania
Current

37 mins ago

EYSA 201950Z 35007KT CAVOK 08/01 Q1026 BLU NOSIG
Observed
Apr-20 @ 19:50 UTC
Wind
  • 350° at 7 KTS
Visibility
10,000+ meters
Flight Rules
VFR
Cloud Levels
  • Clear skies
Temperature
C / 46°F
Dewpoint
C / 34°F
Humidity
62%
Altimeter
30.3" Hg
Pressure
1025.92 hPa
Previous

1 hour ago

EYSA 201920Z 36006KT CAVOK 07/01 Q1026 BLU NOSIG
Observed
Apr-20 @ 19:20 UTC
Wind
  • 360° at 6 KTS
Visibility
10,000+ meters
Flight Rules
VFR
Cloud Levels
  • Clear skies
Temperature
C / 45°F
Dewpoint
C / 34°F
Humidity
66%
Altimeter
30.3" Hg
Pressure
1025.92 hPa
Previous

2 hours ago

EYSA 201850Z 01006KT CAVOK 08/01 Q1026 BLU NOSIG
Observed
Apr-20 @ 18:50 UTC
Wind
  • 010° at 6 KTS
Visibility
10,000+ meters
Flight Rules
VFR
Cloud Levels
  • Clear skies
Temperature
C / 46°F
Dewpoint
C / 34°F
Humidity
62%
Altimeter
30.3" Hg
Pressure
1025.92 hPa